createdAt,value
2022-08-04T00:01:29.092Z,16.33
2022-08-04T00:06:48.964Z,16.38
2022-08-04T00:11:55.042Z,15.27
2022-08-04T00:16:57.675Z,14.95
2022-08-04T00:22:08.638Z,14.27
2022-08-04T00:27:10.620Z,15.40
2022-08-04T00:32:12.523Z,13.77
2022-08-04T00:37:15.024Z,14.13
2022-08-04T00:42:58.413Z,12.38
2022-08-04T00:48:19.561Z,12.38
2022-08-04T00:53:50.069Z,11.70
2022-08-04T00:59:27.418Z,13.32
2022-08-04T01:04:49.531Z,11.98
2022-08-04T01:10:11.289Z,10.57
2022-08-04T01:15:26.157Z,10.88
2022-08-04T01:20:55.171Z,10.27
2022-08-04T01:26:43.367Z,9.40
2022-08-04T01:32:00.342Z,11.02
2022-08-04T01:37:29.395Z,10.68
2022-08-04T01:42:37.391Z,9.52
2022-08-04T01:47:48.550Z,7.97
2022-08-04T01:52:53.954Z,8.15
2022-08-04T01:57:59.717Z,9.52
2022-08-04T02:03:01.313Z,8.73
2022-08-04T02:08:21.971Z,9.23
2022-08-04T02:13:32.579Z,8.15
2022-08-04T02:19:04.638Z,9.13
2022-08-04T02:24:08.600Z,8.50
2022-08-04T02:34:20.751Z,7.65
2022-08-04T02:39:23.320Z,8.52
2022-08-04T02:44:28.223Z,9.20
2022-08-04T02:49:33.563Z,9.35
2022-08-04T02:54:40.806Z,9.15
2022-08-04T03:00:14.907Z,9.43
2022-08-04T03:05:23.957Z,10.13
2022-08-04T03:10:34.172Z,9.20
2022-08-04T03:15:46.329Z,11.02
2022-08-04T03:21:22.071Z,9.95
2022-08-04T03:26:38.561Z,9.50
2022-08-04T03:32:04.778Z,9.60
2022-08-04T03:37:18.501Z,9.93
2022-08-04T03:42:45.353Z,10.30
2022-08-04T03:48:00.638Z,9.50
2022-08-04T03:53:20.952Z,10.40
2022-08-04T03:58:47.142Z,8.65
2022-08-04T04:04:36.608Z,9.32
2022-08-04T04:10:06.362Z,8.48
2022-08-04T04:15:34.098Z,7.78
2022-08-04T04:20:59.126Z,8.57
2022-08-04T04:26:25.607Z,8.95
2022-08-04T04:31:48.483Z,7.55
2022-08-04T04:37:17.603Z,6.90
2022-08-04T04:42:45.658Z,6.35
2022-08-04T04:48:11.163Z,5.90
2022-08-04T04:53:33.323Z,6.20
2022-08-04T04:58:38.052Z,5.38
2022-08-04T05:03:58.205Z,5.30
2022-08-04T05:09:10.307Z,4.35
2022-08-04T05:14:36.357Z,4.63
2022-08-04T05:19:58.410Z,4.35
2022-08-04T05:25:08.532Z,3.65
2022-08-04T05:30:11.838Z,3.55
2022-08-04T05:35:53.974Z,2.90
2022-08-04T05:40:44.446Z,2.70
2022-08-04T05:45:48.426Z,3.17
2022-08-04T05:50:51.318Z,3.20
2022-08-04T05:55:59.358Z,4.13
2022-08-04T06:01:02.287Z,3.25
2022-08-04T06:06:04.600Z,3.08
2022-08-04T06:11:09.615Z,2.97
2022-08-04T06:16:28.657Z,3.05
2022-08-04T06:21:33.442Z,2.75
2022-08-04T06:26:36.518Z,3.08
2022-08-04T06:32:30.084Z,3.47
2022-08-04T06:37:40.729Z,2.63
2022-08-04T06:42:43.525Z,2.88
2022-08-04T06:47:46.039Z,2.67
2022-08-04T06:52:47.596Z,3.28
2022-08-04T06:57:49.486Z,3.05
2022-08-04T07:02:52.833Z,2.30
2022-08-04T07:07:58.029Z,2.92
2022-08-04T07:13:01.611Z,2.35
2022-08-04T07:18:05.069Z,2.08
2022-08-04T07:23:07.825Z,2.03
2022-08-04T07:28:09.680Z,1.90
2022-08-04T07:33:11.647Z,2.58
2022-08-04T07:38:13.488Z,1.92
2022-08-04T07:43:18.040Z,2.20
2022-08-04T07:48:22.584Z,2.10
2022-08-04T07:53:53.536Z,2.10
2022-08-04T07:58:47.846Z,2.35
2022-08-04T08:03:54.349Z,1.48
2022-08-04T08:08:57.777Z,2.05
2022-08-04T08:13:59.935Z,2.08
2022-08-04T08:19:02.497Z,2.30
2022-08-04T08:24:08.555Z,2.08
2022-08-04T08:29:16.095Z,2.15
2022-08-04T08:39:45.492Z,2.30
2022-08-04T08:45:21.496Z,2.55
2022-08-04T08:50:38.028Z,1.55
2022-08-04T08:56:01.636Z,1.60
2022-08-04T09:01:24.847Z,1.67
2022-08-04T09:06:30.227Z,1.80
2022-08-04T09:12:07.084Z,1.65
2022-08-04T09:17:20.748Z,1.60
2022-08-04T09:22:38.253Z,1.63
2022-08-04T09:27:50.226Z,1.48
2022-08-04T09:33:16.365Z,1.70
2022-08-04T09:38:27.535Z,1.70
2022-08-04T09:43:58.721Z,1.25
2022-08-04T09:49:23.589Z,1.90
2022-08-04T09:54:29.370Z,1.73
2022-08-04T10:00:02.670Z,1.77
2022-08-04T10:10:27.613Z,1.88
2022-08-04T10:15:40.295Z,1.45
2022-08-04T10:21:12.250Z,1.95
2022-08-04T10:26:28.207Z,1.30
2022-08-04T10:31:35.450Z,1.98
2022-08-04T10:36:49.800Z,1.70
2022-08-04T10:42:10.826Z,1.40
2022-08-04T10:47:21.737Z,1.50
2022-08-04T10:52:31.781Z,1.17
2022-08-04T10:57:38.895Z,0.93
2022-08-04T11:02:45.390Z,1.10
2022-08-04T11:07:51.174Z,1.17
2022-08-04T11:12:58.144Z,1.17
2022-08-04T11:18:05.513Z,1.15
2022-08-04T11:23:23.830Z,1.35
2022-08-04T11:28:39.480Z,1.05
2022-08-04T11:34:10.005Z,1.10
2022-08-04T11:39:36.591Z,1.00
2022-08-04T11:45:01.696Z,1.10
2022-08-04T11:50:25.204Z,1.10
2022-08-04T11:55:28.766Z,0.80
2022-08-04T12:00:32.304Z,0.90
2022-08-04T12:05:41.631Z,0.80
2022-08-04T12:11:00.262Z,0.60
2022-08-04T12:16:20.467Z,0.80
2022-08-04T12:21:40.097Z,1.30
2022-08-04T12:27:15.630Z,1.25
2022-08-04T12:32:36.719Z,1.17
2022-08-04T12:37:56.593Z,1.58
2022-08-04T12:43:19.722Z,1.23
2022-08-04T12:48:26.589Z,1.23
2022-08-04T12:53:50.902Z,1.00
2022-08-04T12:59:00.336Z,1.55
2022-08-04T13:04:13.371Z,1.35
2022-08-04T13:09:22.598Z,1.20
2022-08-04T13:14:29.009Z,1.75
2022-08-04T13:19:31.722Z,1.98
2022-08-04T13:24:57.036Z,2.58
2022-08-04T13:30:06.829Z,2.80
2022-08-04T13:35:13.205Z,2.22
2022-08-04T13:40:16.374Z,2.40
2022-08-04T13:45:22.378Z,2.35
2022-08-04T13:50:27.579Z,2.45
2022-08-04T13:55:32.487Z,2.53
2022-08-04T14:00:54.682Z,2.35
2022-08-04T14:06:13.496Z,2.75
2022-08-04T14:12:06.068Z,2.55
2022-08-04T14:16:58.830Z,2.78
2022-08-04T14:22:00.384Z,2.55
2022-08-04T14:27:02.262Z,2.17
2022-08-04T14:32:12.736Z,2.80
2022-08-04T14:37:20.353Z,2.42
2022-08-04T14:42:55.452Z,2.33
2022-08-04T14:47:58.576Z,1.75
2022-08-04T14:53:06.166Z,2.28
2022-08-04T14:58:34.127Z,2.15
2022-08-04T15:03:50.160Z,1.98
2022-08-04T15:08:57.695Z,1.98
2022-08-04T15:13:59.359Z,2.45
2022-08-04T15:19:01.830Z,3.22
2022-08-04T15:24:03.676Z,2.38
2022-08-04T15:29:16.789Z,3.15
2022-08-04T15:34:18.685Z,3.15
2022-08-04T15:39:44.492Z,3.15
2022-08-04T15:44:51.813Z,2.97
2022-08-04T15:50:13.160Z,3.42
2022-08-04T15:55:34.424Z,3.30
2022-08-04T16:00:53.866Z,4.07
2022-08-04T16:05:55.402Z,4.93
2022-08-04T16:10:57.021Z,6.53
2022-08-04T16:16:03.054Z,5.10
2022-08-04T16:21:17.763Z,5.88
2022-08-04T16:26:38.027Z,5.25
2022-08-04T16:32:13.138Z,4.45
2022-08-04T16:37:16.724Z,4.78
2022-08-04T16:42:27.489Z,5.47
2022-08-04T16:47:47.274Z,3.42
2022-08-04T16:52:49.938Z,2.67
2022-08-04T16:57:58.713Z,2.20
2022-08-04T17:03:09.726Z,2.17
2022-08-04T17:14:02.054Z,2.10
2022-08-04T17:18:57.842Z,1.83
2022-08-04T17:24:13.442Z,1.63
2022-08-04T17:29:20.003Z,1.98
2022-08-04T17:34:22.147Z,2.28
2022-08-04T17:39:30.950Z,2.28
2022-08-04T17:44:39.920Z,1.95
2022-08-04T17:49:52.716Z,2.00
2022-08-04T17:55:02.796Z,1.83
2022-08-04T18:00:06.452Z,1.95
2022-08-04T18:05:11.654Z,2.80
2022-08-04T18:10:32.923Z,2.00
2022-08-04T18:15:44.098Z,2.40
2022-08-04T18:20:46.614Z,2.28
2022-08-04T18:25:52.393Z,2.67
2022-08-04T18:30:55.577Z,2.90
2022-08-04T18:36:32.794Z,2.60
2022-08-04T18:41:19.479Z,2.45
2022-08-04T18:46:21.006Z,3.53
2022-08-04T18:51:24.912Z,2.42
2022-08-04T18:56:33.249Z,4.53
2022-08-04T19:02:13.662Z,4.53
2022-08-04T19:06:58.343Z,4.22
2022-08-04T19:12:26.363Z,5.15
2022-08-04T19:17:57.085Z,4.75
2022-08-04T19:24:27.670Z,4.78
2022-08-04T19:28:17.579Z,4.78
2022-08-04T19:33:20.327Z,5.88
2022-08-04T19:38:27.230Z,6.95
2022-08-04T19:43:28.825Z,7.38
2022-08-04T19:48:33.257Z,8.70
2022-08-04T19:53:37.267Z,7.57
2022-08-04T19:58:41.486Z,9.07
2022-08-04T20:04:08.107Z,8.93
2022-08-04T20:09:24.588Z,8.90
2022-08-04T20:14:32.078Z,9.13
2022-08-04T20:19:34.802Z,8.07
2022-08-04T20:24:44.147Z,8.85
2022-08-04T20:29:55.433Z,8.98
2022-08-04T20:34:58.144Z,7.82
2022-08-04T20:40:05.145Z,8.90
2022-08-04T20:45:07.308Z,8.48
2022-08-04T20:50:18.150Z,6.80
2022-08-04T20:55:31.632Z,6.30
2022-08-04T21:00:53.173Z,5.70
2022-08-04T21:05:56.679Z,5.55
2022-08-04T21:10:58.195Z,5.65
2022-08-04T21:16:02.003Z,5.30
2022-08-04T21:26:10.939Z,5.30
2022-08-04T21:31:21.839Z,5.28
2022-08-04T21:36:27.294Z,4.43
2022-08-04T21:41:28.892Z,4.28
2022-08-04T21:46:31.268Z,3.55
2022-08-04T21:52:00.189Z,3.58
2022-08-04T21:56:58.538Z,3.13
2022-08-04T22:02:04.979Z,3.47
2022-08-04T22:07:09.400Z,2.75
2022-08-04T22:12:12.334Z,2.90
2022-08-04T22:17:14.100Z,3.13
2022-08-04T22:22:25.781Z,2.28
2022-08-04T22:27:47.867Z,2.30
2022-08-04T22:32:56.909Z,2.58
2022-08-04T22:38:06.978Z,2.00
2022-08-04T22:43:32.804Z,2.45
2022-08-04T22:48:35.293Z,2.22
2022-08-04T22:53:36.977Z,2.22
2022-08-04T22:58:45.164Z,1.98
2022-08-04T23:03:55.844Z,2.00
2022-08-04T23:08:57.876Z,1.48
2022-08-04T23:14:00.957Z,2.13
2022-08-04T23:19:09.508Z,1.85
2022-08-04T23:24:11.689Z,1.48
2022-08-04T23:29:15.063Z,2.20
2022-08-04T23:34:18.695Z,1.90
2022-08-04T23:39:20.886Z,2.40
2022-08-04T23:44:25.152Z,2.13
2022-08-04T23:54:46.789Z,2.45
2022-08-04T23:59:54.936Z,1.98
